sensor_id;sensor_type;location;lat;lon;timestamp;temperature;humidity
55269;DHT22;41131;42.990;21.954;2023-07-29T02:55:53;512.80;2278.40
55269;DHT22;41131;42.990;21.954;2023-07-29T02:58:19;512.50;2278.40
55269;DHT22;41131;42.990;21.954;2023-07-29T03:27:38;487.30;2304.00
55269;DHT22;41131;42.990;21.954;2023-07-29T03:30:05;487.20;2380.80
55269;DHT22;41131;42.990;21.954;2023-07-29T03:32:32;487.00;2329.60
55269;DHT22;41131;42.990;21.954;2023-07-29T03:34:58;487.10;2329.60
55269;DHT22;41131;42.990;21.954;2023-07-29T03:37:24;487.00;2329.60
55269;DHT22;41131;42.990;21.954;2023-07-29T03:39:49;487.10;2355.20
55269;DHT22;41131;42.990;21.954;2023-07-29T03:42:17;487.20;2304.00
55269;DHT22;41131;42.990;21.954;2023-07-29T03:44:43;487.20;2278.40
55269;DHT22;41131;42.990;21.954;2023-07-29T03:47:09;487.20;2304.00
55269;DHT22;41131;42.990;21.954;2023-07-29T03:49:34;487.20;2304.00
55269;DHT22;41131;42.990;21.954;2023-07-29T03:52:00;487.20;2329.60
55269;DHT22;41131;42.990;21.954;2023-07-29T03:54:25;487.20;2304.00
55269;DHT22;41131;42.990;21.954;2023-07-29T03:56:51;487.20;2329.60
55269;DHT22;41131;42.990;21.954;2023-07-29T03:59:17;487.20;2329.60
55269;DHT22;41131;42.990;21.954;2023-07-29T04:01:43;487.30;2329.60
55269;DHT22;41131;42.990;21.954;2023-07-29T04:04:09;487.30;2329.60
55269;DHT22;41131;42.990;21.954;2023-07-29T04:06:34;512.00;2304.00
55269;DHT22;41131;42.990;21.954;2023-07-29T04:09:00;512.00;2329.60
55269;DHT22;41131;42.990;21.954;2023-07-29T04:11:26;512.10;2304.00
55269;DHT22;41131;42.990;21.954;2023-07-29T04:13:52;512.20;2278.40
55269;DHT22;41131;42.990;21.954;2023-07-29T04:16:17;512.30;2278.40
55269;DHT22;41131;42.990;21.954;2023-07-29T04:18:43;512.30;2278.40
55269;DHT22;41131;42.990;21.954;2023-07-29T04:21:09;512.40;2278.40
55269;DHT22;41131;42.990;21.954;2023-07-29T04:23:34;512.50;2252.80
55269;DHT22;41131;42.990;21.954;2023-07-29T04:26:01;512.60;2227.20
55269;DHT22;41131;42.990;21.954;2023-07-29T04:28:26;512.70;2201.60
55269;DHT22;41131;42.990;21.954;2023-07-29T04:30:52;512.80;2201.60
55269;DHT22;41131;42.990;21.954;2023-07-29T04:33:18;512.80;2201.60
55269;DHT22;41131;42.990;21.954;2023-07-29T04:35:43;512.90;2176.00
55269;DHT22;41131;42.990;21.954;2023-07-29T04:38:09;512.90;2201.60
55269;DHT22;41131;42.990;21.954;2023-07-29T04:40:35;537.60;2201.60
55269;DHT22;41131;42.990;21.954;2023-07-29T04:43:01;537.60;2201.60
55269;DHT22;41131;42.990;21.954;2023-07-29T04:45:30;537.70;2176.00
55269;DHT22;41131;42.990;21.954;2023-07-29T04:47:57;537.70;2201.60
55269;DHT22;41131;42.990;21.954;2023-07-29T04:50:23;537.70;2201.60
55269;DHT22;41131;42.990;21.954;2023-07-29T04:52:49;537.80;2201.60
55269;DHT22;41131;42.990;21.954;2023-07-29T04:55:15;537.90;2201.60
55269;DHT22;41131;42.990;21.954;2023-07-29T04:57:41;538.00;2406.40
55269;DHT22;41131;42.990;21.954;2023-07-29T05:00:07;538.10;2201.60
55269;DHT22;41131;42.990;21.954;2023-07-29T05:02:32;538.00;2176.00
55269;DHT22;41131;42.990;21.954;2023-07-29T05:04:58;538.00;2176.00
55269;DHT22;41131;42.990;21.954;2023-07-29T05:07:24;538.00;2150.40
55269;DHT22;41131;42.990;21.954;2023-07-29T05:09:49;538.00;2176.00
55269;DHT22;41131;42.990;21.954;2023-07-29T05:12:15;538.20;2176.00
55269;DHT22;41131;42.990;21.954;2023-07-29T05:14:41;538.30;2176.00
55269;DHT22;41131;42.990;21.954;2023-07-29T05:17:07;538.20;2150.40
55269;DHT22;41131;42.990;21.954;2023-07-29T05:19:32;538.30;2176.00
55269;DHT22;41131;42.990;21.954;2023-07-29T05:21:58;538.40;2150.40
55269;DHT22;41131;42.990;21.954;2023-07-29T05:24:24;538.50;2124.80
55269;DHT22;41131;42.990;21.954;2023-07-29T05:26:49;538.50;2176.00
55269;DHT22;41131;42.990;21.954;2023-07-29T05:29:15;563.30;2176.00
55269;DHT22;41131;42.990;21.954;2023-07-29T05:31:41;563.20;2150.40
55269;DHT22;41131;42.990;21.954;2023-07-29T05:34:07;563.50;2124.80
55269;DHT22;41131;42.990;21.954;2023-07-29T07:14:00;640.50;1817.60
55269;DHT22;41131;42.990;21.954;2023-07-29T07:45:47;691.30;1740.80
55269;DHT22;41131;42.990;21.954;2023-07-29T07:50:39;691.60;1740.80
55269;DHT22;41131;42.990;21.954;2023-07-29T07:53:05;691.60;1689.60
55269;DHT22;41131;42.990;21.954;2023-07-29T07:55:31;691.90;1715.20
55269;DHT22;41131;42.990;21.954;2023-07-29T07:57:56;691.70;1715.20
55269;DHT22;41131;42.990;21.954;2023-07-29T08:00:22;691.80;1740.80
55269;DHT22;41131;42.990;21.954;2023-07-29T08:07:40;716.80;1689.60
55269;DHT22;41131;42.990;21.954;2023-07-29T08:10:06;692.10;1638.40
55269;DHT22;41131;42.990;21.954;2023-07-29T08:12:32;692.10;1638.40
55269;DHT22;41131;42.990;21.954;2023-07-29T08:14:58;692.10;1638.40
55269;DHT22;41131;42.990;21.954;2023-07-29T08:19:49;717.10;1638.40
55269;DHT22;41131;42.990;21.954;2023-07-29T08:56:48;768.00;1510.40
55269;DHT22;41131;42.990;21.954;2023-07-29T09:35:57;768.90;1484.80
55269;DHT22;41131;42.990;21.954;2023-07-29T09:38:29;768.90;1459.20
55269;DHT22;41131;42.990;21.954;2023-07-29T09:40:56;768.60;1459.20
55269;DHT22;41131;42.990;21.954;2023-07-29T09:43:29;768.50;1459.20
55269;DHT22;41131;42.990;21.954;2023-07-29T09:46:03;768.50;1459.20
55269;DHT22;41131;42.990;21.954;2023-07-29T09:48:33;768.60;1459.20
55269;DHT22;41131;42.990;21.954;2023-07-29T09:50:59;768.70;1433.60
55269;DHT22;41131;42.990;21.954;2023-07-29T09:53:25;768.80;1382.40
55269;DHT22;41131;42.990;21.954;2023-07-29T10:00:52;794.30;1356.80
55269;DHT22;41131;42.990;21.954;2023-07-29T10:08:13;794.50;1331.20
55269;DHT22;41131;42.990;21.954;2023-07-29T10:10:41;794.50;1331.20
55269;DHT22;41131;42.990;21.954;2023-07-29T10:13:07;794.40;1382.40
55269;DHT22;41131;42.990;21.954;2023-07-29T10:15:36;794.20;1305.60
55269;DHT22;41131;42.990;21.954;2023-07-29T10:18:02;794.20;1331.20
55269;DHT22;41131;42.990;21.954;2023-07-29T10:20:30;794.20;1356.80
55269;DHT22;41131;42.990;21.954;2023-07-29T10:22:59;794.30;1356.80
55269;DHT22;41131;42.990;21.954;2023-07-29T10:25:30;794.40;1305.60
55269;DHT22;41131;42.990;21.954;2023-07-29T18:52:43;742.90;1612.80
55269;DHT22;41131;42.990;21.954;2023-07-29T18:55:09;742.80;1587.20
55269;DHT22;41131;42.990;21.954;2023-07-29T20:18:28;691.40;1920.00
55269;DHT22;41131;42.990;21.954;2023-07-29T20:53:12;666.10;1971.20
